createdAt,value
2018-09-04T00:00:40.810Z,51.68
2018-09-04T00:04:05.232Z,50.67
2018-09-04T00:07:29.640Z,50.23
2018-09-04T00:10:54.052Z,49.27
2018-09-04T00:14:18.474Z,53.25
2018-09-04T00:17:43.167Z,50.25
2018-09-04T00:21:07.889Z,47.80
2018-09-04T00:24:32.308Z,50.08
2018-09-04T00:27:56.693Z,47.62
2018-09-04T00:31:21.097Z,49.90
2018-09-04T00:34:45.497Z,50.58
2018-09-04T00:38:09.954Z,49.35
2018-09-04T00:41:34.347Z,48.92
2018-09-04T00:44:58.769Z,49.20
2018-09-04T00:48:23.194Z,50.45
2018-09-04T00:51:47.621Z,52.27
2018-09-04T00:55:12.056Z,47.23
2018-09-04T00:58:36.455Z,51.15
2018-09-04T01:02:00.989Z,50.05
2018-09-04T01:05:25.386Z,49.88
2018-09-04T01:08:49.824Z,50.90
2018-09-04T01:12:14.249Z,52.85
2018-09-04T01:15:38.772Z,49.58
2018-09-04T01:19:03.304Z,51.20
2018-09-04T01:22:27.718Z,47.53
2018-09-04T01:25:52.115Z,50.78
2018-09-04T01:29:16.546Z,51.05
2018-09-04T01:32:40.981Z,53.35
2018-09-04T01:36:05.425Z,51.37
2018-09-04T01:39:29.791Z,51.95
2018-09-04T01:42:54.279Z,50.25
2018-09-04T01:46:18.848Z,49.27
2018-09-04T01:49:43.260Z,49.77
2018-09-04T01:53:07.707Z,51.80
2018-09-04T01:56:32.109Z,48.65
2018-09-04T01:59:56.505Z,48.23
2018-09-04T02:03:20.924Z,51.40
2018-09-04T02:06:45.364Z,51.18
2018-09-04T02:10:09.743Z,49.27
2018-09-04T02:13:34.193Z,51.73
2018-09-04T02:16:58.610Z,49.88
2018-09-04T02:20:22.992Z,49.10
2018-09-04T02:23:47.405Z,53.08
2018-09-04T02:27:11.852Z,52.33
2018-09-04T02:30:36.252Z,48.45
2018-09-04T02:34:00.635Z,49.10
2018-09-04T02:37:25.057Z,49.70
2018-09-04T02:40:49.511Z,51.83
2018-09-04T02:44:13.910Z,53.58
2018-09-04T02:47:38.316Z,52.83
2018-09-04T02:51:02.757Z,51.95
2018-09-04T02:54:27.271Z,53.60
2018-09-04T02:57:51.645Z,52.75
2018-09-04T03:01:16.089Z,49.85
2018-09-04T03:04:41.184Z,48.08
2018-09-04T03:08:05.615Z,52.50
2018-09-04T03:11:30.077Z,53.38
2018-09-04T03:14:54.479Z,48.92
2018-09-04T03:18:18.998Z,49.00
2018-09-04T03:21:43.393Z,51.35
2018-09-04T03:25:07.811Z,54.38
2018-09-04T03:28:32.224Z,51.70
2018-09-04T03:31:56.765Z,57.43
2018-09-04T03:35:21.181Z,53.73
2018-09-04T03:38:45.554Z,55.15
2018-09-04T03:42:10.005Z,57.35
2018-09-04T03:45:34.428Z,53.60
2018-09-04T03:48:58.837Z,57.20
2018-09-04T03:52:23.331Z,67.10
2018-09-04T03:55:47.780Z,77.30
2018-09-04T03:59:12.237Z,69.58
2018-09-04T04:02:36.678Z,81.60
2018-09-04T04:06:01.094Z,96.85
2018-09-04T04:09:25.499Z,99.37
2018-09-04T04:12:50.000Z,88.65
2018-09-04T04:16:14.482Z,82.45
2018-09-04T04:19:38.992Z,85.00
2018-09-04T04:23:03.401Z,83.67
2018-09-04T04:26:27.811Z,79.55
2018-09-04T04:29:52.233Z,78.67
2018-09-04T04:33:16.640Z,81.75
2018-09-04T04:36:41.068Z,80.25
2018-09-04T04:40:06.305Z,74.97
2018-09-04T04:43:31.313Z,80.70
2018-09-04T04:46:55.760Z,78.42
2018-09-04T04:50:20.203Z,89.40
2018-09-04T04:53:44.635Z,89.72
2018-09-04T04:57:09.162Z,87.60
2018-09-04T05:00:33.695Z,89.30
2018-09-04T05:03:58.640Z,91.12
2018-09-04T05:07:23.083Z,92.17
2018-09-04T05:10:47.502Z,93.10
2018-09-04T05:14:11.977Z,92.85
2018-09-04T05:17:36.442Z,91.70
2018-09-04T05:21:00.915Z,91.08
2018-09-04T05:24:25.316Z,91.12
2018-09-04T05:27:49.734Z,90.45
2018-09-04T05:31:14.145Z,88.20
2018-09-04T05:34:48.618Z,93.58
2018-09-04T05:38:14.309Z,94.35
2018-09-04T05:41:38.792Z,86.40
2018-09-04T05:45:04.025Z,95.28
2018-09-04T05:48:28.539Z,95.87
2018-09-04T05:51:53.028Z,95.47
2018-09-04T05:55:17.576Z,86.10
2018-09-04T05:58:42.032Z,93.78
2018-09-04T06:02:06.567Z,77.97
2018-09-04T06:05:31.031Z,78.75
2018-09-04T06:08:55.478Z,75.08
2018-09-04T06:12:20.012Z,81.45
2018-09-04T06:15:44.410Z,66.72
2018-09-04T06:19:08.824Z,75.52
2018-09-04T06:22:33.257Z,79.20
2018-09-04T06:25:57.709Z,75.50
2018-09-04T06:29:22.231Z,80.57
2018-09-04T06:32:46.644Z,74.65
2018-09-04T06:36:11.061Z,80.30
2018-09-04T06:39:35.546Z,72.75
2018-09-04T06:42:59.942Z,66.77
2018-09-04T06:46:24.429Z,60.50
2018-09-04T06:49:48.875Z,56.53
2018-09-04T06:53:13.294Z,62.00
2018-09-04T06:56:37.681Z,48.28
2018-09-04T07:00:02.113Z,52.17
2018-09-04T07:03:26.529Z,52.45
2018-09-04T07:06:51.942Z,55.38
2018-09-04T07:10:16.341Z,60.12
2018-09-04T07:13:40.765Z,59.15
2018-09-04T07:17:05.262Z,62.93
2018-09-04T07:20:29.674Z,62.05
2018-09-04T07:23:54.122Z,65.47
2018-09-04T07:27:18.602Z,64.10
2018-09-04T07:30:43.078Z,62.85
2018-09-04T07:34:07.501Z,69.17
2018-09-04T07:37:31.965Z,67.53
2018-09-04T07:40:56.419Z,64.30
2018-09-04T07:44:20.848Z,62.38
2018-09-04T07:47:45.292Z,65.45
2018-09-04T07:51:09.691Z,68.78
2018-09-04T07:54:34.135Z,63.58
2018-09-04T07:57:58.606Z,63.45
2018-09-04T08:01:22.992Z,60.48
2018-09-04T08:04:47.473Z,59.38
2018-09-04T08:08:11.916Z,59.75
2018-09-04T08:11:36.376Z,61.55
2018-09-04T08:15:00.822Z,60.67
2018-09-04T08:18:25.242Z,58.23
2018-09-04T08:21:49.717Z,56.75
2018-09-04T08:25:14.161Z,63.35
2018-09-04T08:28:38.578Z,62.25
2018-09-04T08:32:03.027Z,61.58
2018-09-04T08:35:27.435Z,59.75
2018-09-04T08:38:52.639Z,66.70
2018-09-04T08:42:17.058Z,64.32
2018-09-04T08:45:41.511Z,63.35
2018-09-04T08:49:05.998Z,67.53
2018-09-04T08:52:30.460Z,68.55
2018-09-04T08:55:54.893Z,63.05
2018-09-04T08:59:19.425Z,69.92
2018-09-04T09:02:43.863Z,65.25
2018-09-04T09:06:08.363Z,66.40
2018-09-04T09:09:32.789Z,64.97
2018-09-04T09:12:57.244Z,70.85
2018-09-04T09:16:21.662Z,71.77
2018-09-04T09:19:46.129Z,74.95
2018-09-04T09:23:10.626Z,68.05
2018-09-04T09:26:35.107Z,72.50
2018-09-04T09:29:59.563Z,72.35
2018-09-04T09:33:23.982Z,74.12
2018-09-04T09:36:48.546Z,72.60
2018-09-04T09:40:12.861Z,73.28
2018-09-04T09:43:37.310Z,77.37
2018-09-04T09:47:03.817Z,74.17
2018-09-04T09:50:28.289Z,77.55
2018-09-04T09:53:52.721Z,78.28
2018-09-04T09:57:17.128Z,78.67
2018-09-04T10:00:46.861Z,79.65
2018-09-04T10:04:11.323Z,81.75
2018-09-04T10:07:35.798Z,75.25
2018-09-04T10:11:00.175Z,71.53
2018-09-04T10:14:24.663Z,75.72
2018-09-04T10:17:49.093Z,67.00
2018-09-04T10:21:13.569Z,59.25
2018-09-04T10:24:38.644Z,65.45
2018-09-04T10:28:03.131Z,63.45
2018-09-04T10:31:27.560Z,54.85
2018-09-04T10:34:51.962Z,47.78
2018-09-04T10:38:16.433Z,59.75
2018-09-04T10:41:40.919Z,58.55
2018-09-04T10:45:05.738Z,56.73
2018-09-04T10:48:31.233Z,51.20
2018-09-04T10:51:55.659Z,56.30
2018-09-04T10:55:20.181Z,57.80
2018-09-04T10:58:44.629Z,58.42
2018-09-04T11:02:09.092Z,55.40
2018-09-04T11:05:33.503Z,57.70
2018-09-04T11:08:57.921Z,56.48
2018-09-04T11:12:22.396Z,59.05
2018-09-04T11:15:46.875Z,60.08
2018-09-04T11:19:14.378Z,55.73
2018-09-04T11:22:38.822Z,52.90
2018-09-04T11:26:03.254Z,54.42
2018-09-04T11:29:27.678Z,58.05
2018-09-04T11:32:52.108Z,51.37
2018-09-04T11:36:16.493Z,46.15
2018-09-04T11:39:40.946Z,54.58
2018-09-04T11:43:05.595Z,52.60
2018-09-04T11:46:30.028Z,51.05
2018-09-04T11:49:54.444Z,54.23
2018-09-04T11:53:18.879Z,49.45
2018-09-04T11:56:43.321Z,47.27
2018-09-04T12:00:10.196Z,49.95
2018-09-04T12:03:34.645Z,50.78
2018-09-04T12:06:59.074Z,47.40
2018-09-04T12:10:23.486Z,46.65
2018-09-04T12:13:47.893Z,49.00
2018-09-04T12:17:12.301Z,50.38
2018-09-04T12:20:42.485Z,43.15
2018-09-04T12:24:06.925Z,43.15
2018-09-04T12:27:32.170Z,43.17
2018-09-04T12:30:57.096Z,39.50
2018-09-04T12:34:21.526Z,38.15
2018-09-04T12:37:45.928Z,39.95
2018-09-04T12:41:17.328Z,41.00
2018-09-04T12:44:41.748Z,38.88
2018-09-04T12:48:06.218Z,45.80
2018-09-04T12:51:30.578Z,44.25
2018-09-04T12:54:55.412Z,37.45
2018-09-04T12:58:19.818Z,36.03
2018-09-04T13:01:44.228Z,36.13
2018-09-04T13:05:08.902Z,33.92
2018-09-04T13:08:34.221Z,41.00
2018-09-04T13:11:58.740Z,37.58
2018-09-04T13:15:23.240Z,37.98
2018-09-04T13:18:47.694Z,41.50
2018-09-04T13:22:12.085Z,42.10
2018-09-04T13:25:36.569Z,38.65
2018-09-04T13:29:01.098Z,34.03
2018-09-04T13:32:32.603Z,37.05
2018-09-04T13:35:57.076Z,35.60
2018-09-04T13:39:21.503Z,35.80
2018-09-04T13:42:45.890Z,36.93
2018-09-04T13:46:10.333Z,36.13
2018-09-04T13:49:34.851Z,36.05
2018-09-04T13:52:59.166Z,37.40
2018-09-04T13:56:23.605Z,36.20
2018-09-04T13:59:48.013Z,36.60
2018-09-04T14:03:12.405Z,35.38
2018-09-04T14:06:36.981Z,34.30
2018-09-04T14:10:01.497Z,36.90
2018-09-04T14:13:25.901Z,31.82
2018-09-04T14:16:50.414Z,32.78
2018-09-04T14:20:14.783Z,31.33
2018-09-04T14:23:39.184Z,36.60
2018-09-04T14:27:03.638Z,31.07
2018-09-04T14:30:28.078Z,32.50
2018-09-04T14:33:52.460Z,33.08
2018-09-04T14:37:16.957Z,32.95
2018-09-04T14:40:41.292Z,32.13
2018-09-04T14:44:05.920Z,30.68
2018-09-04T14:47:31.402Z,30.77
2018-09-04T14:50:56.448Z,33.98
2018-09-04T14:54:20.842Z,31.35
2018-09-04T14:57:45.237Z,28.77
2018-09-04T15:01:09.636Z,33.63
2018-09-04T15:04:34.672Z,36.40
2018-09-04T15:07:59.086Z,35.30
2018-09-04T15:11:23.506Z,35.25
2018-09-04T15:14:47.917Z,39.88
2018-09-04T15:18:12.321Z,33.13
2018-09-04T15:21:36.764Z,33.95
2018-09-04T15:25:01.189Z,35.25
2018-09-04T15:28:25.564Z,32.67
2018-09-04T15:31:49.947Z,33.92
2018-09-04T15:35:14.391Z,35.52
2018-09-04T15:38:38.769Z,35.05
2018-09-04T15:42:03.176Z,37.33
2018-09-04T15:45:27.577Z,36.60
2018-09-04T15:48:57.125Z,35.00
2018-09-04T15:52:21.510Z,36.53
2018-09-04T15:55:45.961Z,35.68
2018-09-04T15:59:10.830Z,34.33
2018-09-04T16:02:35.258Z,39.00
2018-09-04T16:06:00.515Z,31.45
2018-09-04T16:09:25.287Z,36.13
2018-09-04T16:12:50.440Z,35.78
2018-09-04T16:16:15.653Z,39.35
2018-09-04T16:19:40.729Z,32.88
2018-09-04T16:23:06.945Z,32.08
2018-09-04T16:26:31.519Z,30.23
2018-09-04T16:29:57.173Z,30.85
2018-09-04T16:33:21.975Z,24.63
2018-09-04T16:36:46.472Z,22.87
2018-09-04T16:40:10.978Z,22.80
2018-09-04T16:43:36.207Z,19.32
2018-09-04T16:47:00.765Z,18.17
2018-09-04T16:50:25.329Z,17.27
2018-09-04T16:53:49.745Z,15.15
2018-09-04T16:57:14.269Z,15.98
2018-09-04T17:00:38.771Z,14.95
2018-09-04T17:04:03.257Z,16.55
2018-09-04T17:07:27.667Z,15.58
2018-09-04T17:10:52.617Z,16.87
2018-09-04T17:14:17.267Z,15.23
2018-09-04T17:17:43.090Z,14.75
2018-09-04T17:21:08.177Z,15.30
2018-09-04T17:24:33.254Z,14.53
2018-09-04T17:27:58.313Z,16.95
2018-09-04T17:31:22.968Z,15.50
2018-09-04T17:34:47.684Z,15.48
2018-09-04T17:38:12.892Z,14.13
2018-09-04T17:41:37.620Z,13.15
2018-09-04T17:45:02.402Z,11.63
2018-09-04T17:48:27.222Z,13.43
2018-09-04T17:51:52.099Z,11.08
2018-09-04T17:55:16.721Z,12.40
2018-09-04T17:58:41.555Z,10.53
2018-09-04T18:02:06.474Z,10.60
2018-09-04T18:05:31.297Z,12.60
2018-09-04T18:08:55.999Z,12.00
2018-09-04T18:12:20.871Z,11.25
2018-09-04T18:15:45.570Z,11.93
2018-09-04T18:19:10.331Z,13.58
2018-09-04T18:22:35.085Z,15.95
2018-09-04T18:25:59.653Z,15.08
2018-09-04T18:29:24.449Z,16.93
2018-09-04T18:32:49.218Z,16.73
2018-09-04T18:36:13.919Z,16.48
2018-09-04T18:39:38.620Z,17.40
2018-09-04T18:43:03.320Z,18.40
2018-09-04T18:46:28.117Z,16.00
2018-09-04T18:49:52.935Z,16.15
2018-09-04T18:53:17.735Z,17.55
2018-09-04T18:56:42.296Z,17.25
2018-09-04T19:00:07.508Z,17.15
2018-09-04T19:03:31.925Z,17.05
2018-09-04T19:06:56.376Z,16.62
2018-09-04T19:10:20.813Z,15.90
2018-09-04T19:13:45.280Z,15.90
2018-09-04T19:17:09.746Z,17.30
2018-09-04T19:20:34.231Z,17.32
2018-09-04T19:23:58.783Z,17.42
2018-09-04T19:27:23.179Z,16.93
2018-09-04T19:30:47.621Z,17.77
2018-09-04T19:34:12.043Z,16.60
2018-09-04T19:37:36.549Z,15.65
2018-09-04T19:41:00.952Z,17.17
2018-09-04T19:44:25.398Z,17.17
2018-09-04T19:47:49.822Z,18.00
2018-09-04T19:51:14.324Z,18.42
2018-09-04T19:54:38.875Z,18.42
2018-09-04T19:58:03.323Z,17.73
2018-09-04T20:01:27.769Z,18.02
2018-09-04T20:04:56.377Z,18.12
2018-09-04T20:08:21.533Z,19.48
2018-09-04T20:11:47.560Z,19.02
2018-09-04T20:15:13.312Z,18.57
2018-09-04T20:18:38.731Z,20.90
2018-09-04T20:22:04.200Z,18.45
2018-09-04T20:25:29.039Z,18.55
2018-09-04T20:28:53.482Z,19.07
2018-09-04T20:32:19.419Z,18.42
2018-09-04T20:35:44.134Z,20.40
2018-09-04T20:39:08.545Z,21.12
2018-09-04T20:42:33.758Z,20.68
2018-09-04T20:45:58.175Z,19.73
2018-09-04T20:49:22.652Z,18.92
2018-09-04T20:52:47.179Z,21.70
2018-09-04T20:56:11.656Z,20.10
2018-09-04T20:59:53.061Z,22.22
2018-09-04T21:03:34.434Z,22.07
2018-09-04T21:06:57.244Z,23.35
2018-09-04T21:10:21.707Z,20.70
2018-09-04T21:13:46.167Z,27.00
2018-09-04T21:17:10.712Z,27.35
2018-09-04T21:20:35.178Z,29.02
2018-09-04T21:23:59.639Z,25.57
2018-09-04T21:27:24.079Z,28.73
2018-09-04T21:30:48.511Z,28.83
2018-09-04T21:34:12.922Z,30.45
2018-09-04T21:37:37.339Z,29.07
2018-09-04T21:41:01.748Z,30.10
2018-09-04T21:44:26.159Z,31.37
2018-09-04T21:47:50.644Z,29.05
2018-09-04T21:51:15.156Z,30.60
2018-09-04T21:54:40.663Z,27.93
2018-09-04T21:58:05.278Z,30.00
2018-09-04T22:01:29.719Z,29.12
2018-09-04T22:04:54.151Z,30.90
2018-09-04T22:08:18.614Z,28.12
2018-09-04T22:11:43.359Z,27.42
2018-09-04T22:15:07.863Z,29.50
2018-09-04T22:18:32.321Z,28.07
2018-09-04T22:21:56.758Z,31.62
2018-09-04T22:25:21.300Z,25.97
2018-09-04T22:28:45.785Z,28.40
2018-09-04T22:32:11.244Z,27.32
2018-09-04T22:35:35.710Z,30.85
2018-09-04T22:39:00.217Z,27.85
2018-09-04T22:42:24.638Z,29.90
2018-09-04T22:45:49.065Z,30.40
2018-09-04T22:49:13.574Z,30.90
2018-09-04T22:52:38.044Z,30.77
2018-09-04T22:56:02.477Z,29.82
2018-09-04T22:59:27.626Z,30.80
2018-09-04T23:02:52.085Z,31.80
2018-09-04T23:06:16.544Z,32.38
2018-09-04T23:09:40.991Z,32.38
2018-09-04T23:13:05.461Z,34.05
2018-09-04T23:16:29.906Z,34.08
2018-09-04T23:19:54.371Z,34.78
2018-09-04T23:23:18.797Z,33.33
2018-09-04T23:26:43.223Z,35.52
2018-09-04T23:30:07.731Z,32.93
2018-09-04T23:33:33.211Z,31.27
2018-09-04T23:36:57.682Z,30.80
2018-09-04T23:40:22.098Z,29.90
2018-09-04T23:43:46.551Z,33.53
2018-09-04T23:47:10.967Z,28.77
2018-09-04T23:50:35.462Z,32.33
2018-09-04T23:53:59.928Z,31.45
2018-09-04T23:57:24.396Z,30.82
